createdAt,value
2018-02-15T00:01:40.425Z,12.17
2018-02-15T00:04:07.979Z,12.10
2018-02-15T00:06:35.541Z,11.40
2018-02-15T00:09:03.132Z,12.70
2018-02-15T00:11:30.657Z,12.13
2018-02-15T00:13:58.984Z,13.47
2018-02-15T00:16:26.531Z,12.33
2018-02-15T00:18:54.128Z,11.97
2018-02-15T00:21:21.639Z,12.63
2018-02-15T00:23:49.290Z,12.80
2018-02-15T00:26:17.108Z,12.50
2018-02-15T00:28:45.443Z,12.40
2018-02-15T00:31:12.975Z,11.50
2018-02-15T00:33:41.325Z,12.10
2018-02-15T00:36:08.907Z,13.20
2018-02-15T00:38:36.577Z,12.23
2018-02-15T00:41:04.112Z,13.50
2018-02-15T00:43:31.748Z,12.63
2018-02-15T00:45:59.311Z,13.53
2018-02-15T00:48:26.909Z,12.90
2018-02-15T00:50:55.207Z,13.73
2018-02-15T00:53:22.801Z,12.20
2018-02-15T00:55:50.375Z,13.43
2018-02-15T00:58:18.257Z,14.47
2018-02-15T01:00:45.785Z,13.63
2018-02-15T01:03:14.153Z,14.53
2018-02-15T01:05:41.721Z,13.03
2018-02-15T01:08:09.252Z,12.77
2018-02-15T01:10:36.840Z,12.73
2018-02-15T01:13:04.355Z,14.17
2018-02-15T01:15:31.930Z,13.10
2018-02-15T01:18:00.273Z,13.70
2018-02-15T01:20:27.953Z,12.77
2018-02-15T01:22:55.523Z,11.83
2018-02-15T01:25:23.174Z,11.97
2018-02-15T01:27:50.741Z,12.53
2018-02-15T01:30:18.377Z,12.03
2018-02-15T01:32:45.941Z,12.83
2018-02-15T01:35:13.523Z,13.83
2018-02-15T01:37:41.097Z,12.83
2018-02-15T01:40:08.660Z,13.60
2018-02-15T01:42:36.240Z,11.37
2018-02-15T01:45:03.846Z,11.37
2018-02-15T01:47:31.432Z,12.73
2018-02-15T01:50:04.053Z,13.83
2018-02-15T01:52:31.676Z,11.83
2018-02-15T01:55:00.100Z,11.87
2018-02-15T01:57:27.668Z,12.03
2018-02-15T01:59:55.230Z,11.67
2018-02-15T02:02:22.756Z,11.63
2018-02-15T02:04:50.393Z,10.90
2018-02-15T02:07:17.930Z,10.63
2018-02-15T02:09:45.474Z,10.40
2018-02-15T02:12:13.032Z,10.83
2018-02-15T02:14:40.582Z,9.80
2018-02-15T02:17:08.092Z,10.60
2018-02-15T02:19:35.635Z,10.10
2018-02-15T02:22:03.202Z,10.17
2018-02-15T02:24:30.726Z,9.67
2018-02-15T02:26:59.021Z,9.40
2018-02-15T02:29:26.555Z,9.63
2018-02-15T02:31:54.135Z,10.00
2018-02-15T02:34:21.683Z,9.67
2018-02-15T02:36:49.307Z,9.63
2018-02-15T02:39:17.597Z,8.87
2018-02-15T02:41:45.901Z,9.37
2018-02-15T02:44:13.477Z,9.93
2018-02-15T02:46:41.029Z,9.43
2018-02-15T02:49:09.331Z,7.60
2018-02-15T02:51:36.857Z,8.23
2018-02-15T02:54:05.202Z,8.97
2018-02-15T02:56:32.880Z,8.07
2018-02-15T02:59:00.464Z,8.90
2018-02-15T03:01:28.000Z,9.10
2018-02-15T03:03:56.389Z,8.63
2018-02-15T03:06:24.796Z,9.53
2018-02-15T03:08:52.360Z,7.90
2018-02-15T03:11:19.904Z,8.13
2018-02-15T03:13:47.459Z,8.33
2018-02-15T03:16:15.005Z,8.50
2018-02-15T03:18:42.536Z,8.73
2018-02-15T03:21:10.852Z,8.30
2018-02-15T03:23:38.486Z,7.90
2018-02-15T03:26:06.874Z,8.43
2018-02-15T03:28:36.015Z,8.10
2018-02-15T03:31:03.567Z,9.77
2018-02-15T03:33:31.090Z,8.63
2018-02-15T03:35:58.654Z,8.03
2018-02-15T03:38:26.321Z,7.77
2018-02-15T03:40:53.879Z,8.10
2018-02-15T03:43:21.502Z,8.43
2018-02-15T03:45:49.116Z,8.80
2018-02-15T03:48:16.683Z,8.63
2018-02-15T03:50:45.045Z,8.33
2018-02-15T03:53:12.627Z,7.97
2018-02-15T03:55:40.280Z,8.03
2018-02-15T03:58:07.814Z,8.10
2018-02-15T04:00:35.863Z,8.47
2018-02-15T04:03:03.439Z,8.07
2018-02-15T04:05:31.741Z,8.40
2018-02-15T04:07:59.327Z,7.30
2018-02-15T04:10:26.844Z,7.63
2018-02-15T04:12:54.411Z,7.13
2018-02-15T04:15:21.971Z,7.50
2018-02-15T04:17:49.529Z,6.87
2018-02-15T04:20:17.055Z,7.23
2018-02-15T04:22:44.622Z,8.27
2018-02-15T04:25:12.146Z,7.13
2018-02-15T04:27:39.776Z,6.77
2018-02-15T04:30:08.072Z,6.43
2018-02-15T04:32:36.404Z,7.20
2018-02-15T04:35:03.937Z,6.33
2018-02-15T04:37:32.233Z,6.03
2018-02-15T04:40:00.548Z,6.37
2018-02-15T04:42:28.100Z,6.50
2018-02-15T04:44:55.666Z,6.27
2018-02-15T04:47:23.218Z,6.33
2018-02-15T04:49:51.551Z,6.27
2018-02-15T04:52:19.101Z,6.50
2018-02-15T04:54:47.455Z,6.70
2018-02-15T04:57:14.977Z,6.47
2018-02-15T04:59:42.546Z,6.80
2018-02-15T05:02:10.089Z,6.43
2018-02-15T05:04:38.868Z,5.90
2018-02-15T05:07:06.451Z,6.37
2018-02-15T05:09:34.005Z,9.60
2018-02-15T05:12:01.578Z,7.50
2018-02-15T05:14:29.175Z,6.43
2018-02-15T05:16:56.803Z,7.17
2018-02-15T05:19:24.331Z,7.20
2018-02-15T05:21:52.638Z,7.40
2018-02-15T05:24:20.201Z,7.20
2018-02-15T05:26:48.524Z,6.47
2018-02-15T05:29:16.328Z,7.43
2018-02-15T05:31:43.861Z,7.40
2018-02-15T05:34:11.458Z,7.30
2018-02-15T05:36:38.982Z,6.80
2018-02-15T05:39:06.595Z,6.90
2018-02-15T05:41:34.123Z,5.97
2018-02-15T05:44:01.675Z,7.67
2018-02-15T05:46:29.287Z,7.00
2018-02-15T05:48:56.862Z,6.83
2018-02-15T05:51:24.605Z,7.13
2018-02-15T05:53:53.264Z,6.57
2018-02-15T05:56:20.847Z,7.50
2018-02-15T05:58:48.420Z,7.70
2018-02-15T06:01:15.943Z,6.90
2018-02-15T06:03:43.490Z,8.03
2018-02-15T06:06:11.818Z,7.73
2018-02-15T06:08:39.379Z,8.70
2018-02-15T06:11:06.906Z,8.50
2018-02-15T06:13:34.526Z,7.63
2018-02-15T06:16:02.093Z,8.60
2018-02-15T06:18:29.753Z,9.17
2018-02-15T06:20:58.107Z,8.93
2018-02-15T06:23:25.696Z,8.97
2018-02-15T06:25:54.292Z,8.07
2018-02-15T06:28:21.934Z,7.57
2018-02-15T06:30:49.495Z,7.20
2018-02-15T06:33:17.063Z,8.00
2018-02-15T06:35:44.608Z,8.27
2018-02-15T06:38:12.159Z,7.67
2018-02-15T06:40:39.763Z,6.87
2018-02-15T06:43:07.361Z,7.60
2018-02-15T06:45:34.969Z,7.30
2018-02-15T06:48:02.520Z,6.90
2018-02-15T06:50:30.092Z,7.43
2018-02-15T06:52:57.630Z,7.37
2018-02-15T06:55:25.180Z,6.83
2018-02-15T06:57:53.505Z,7.77
2018-02-15T07:00:21.067Z,7.87
2018-02-15T07:02:48.641Z,7.80
2018-02-15T07:05:16.146Z,6.63
2018-02-15T07:07:43.747Z,6.97
2018-02-15T07:10:12.193Z,6.90
2018-02-15T07:12:39.783Z,6.63
2018-02-15T07:15:07.323Z,7.47
2018-02-15T07:17:34.965Z,7.53
2018-02-15T07:20:03.268Z,7.07
2018-02-15T07:22:31.582Z,7.20
2018-02-15T07:24:59.141Z,7.17
2018-02-15T07:27:26.764Z,8.10
2018-02-15T07:29:54.297Z,7.20
2018-02-15T07:32:21.881Z,7.20
2018-02-15T07:34:49.401Z,7.27
2018-02-15T07:37:17.057Z,6.63
2018-02-15T07:39:44.605Z,6.57
2018-02-15T07:42:12.174Z,6.67
2018-02-15T07:44:39.781Z,5.90
2018-02-15T07:47:07.323Z,6.10
2018-02-15T07:49:34.845Z,5.70
2018-02-15T07:52:03.195Z,6.60
2018-02-15T07:54:30.700Z,6.27
2018-02-15T07:56:58.273Z,6.20
2018-02-15T07:59:26.640Z,5.97
2018-02-15T08:01:54.296Z,6.77
2018-02-15T08:04:21.875Z,6.20
2018-02-15T08:06:49.477Z,6.70
2018-02-15T08:09:17.006Z,7.20
2018-02-15T08:11:44.645Z,7.27
2018-02-15T08:14:12.273Z,7.77
2018-02-15T08:16:39.788Z,7.30
2018-02-15T08:19:07.318Z,8.53
2018-02-15T08:21:34.912Z,8.20
2018-02-15T08:24:02.481Z,9.23
2018-02-15T08:26:30.044Z,8.50
2018-02-15T08:28:57.647Z,8.67
2018-02-15T08:31:26.066Z,8.73
2018-02-15T08:33:53.620Z,9.63
2018-02-15T08:36:21.137Z,8.90
2018-02-15T08:38:48.681Z,8.17
2018-02-15T08:41:16.286Z,9.23
2018-02-15T08:43:44.588Z,8.17
2018-02-15T08:46:12.147Z,8.77
2018-02-15T08:48:39.776Z,9.03
2018-02-15T08:51:07.296Z,8.73
2018-02-15T08:53:34.848Z,9.70
2018-02-15T08:56:02.437Z,8.47
2018-02-15T08:58:29.977Z,9.20
2018-02-15T09:00:57.534Z,8.43
2018-02-15T09:03:25.105Z,8.40
2018-02-15T09:05:52.781Z,9.27
2018-02-15T09:08:20.373Z,9.53
2018-02-15T09:10:47.952Z,9.93
2018-02-15T09:13:15.483Z,9.80
2018-02-15T09:15:43.078Z,11.20
2018-02-15T09:18:10.621Z,10.23
2018-02-15T09:20:39.025Z,10.73
2018-02-15T09:23:06.710Z,10.20
2018-02-15T09:25:34.256Z,10.47
2018-02-15T09:28:01.842Z,11.37
2018-02-15T09:30:29.437Z,11.03
2018-02-15T09:32:56.998Z,10.50
2018-02-15T09:35:24.569Z,9.33
2018-02-15T09:37:52.115Z,10.10
2018-02-15T09:40:20.521Z,9.70
2018-02-15T09:42:48.090Z,10.93
2018-02-15T09:45:15.688Z,10.30
2018-02-15T09:47:43.230Z,10.73
2018-02-15T09:50:11.545Z,10.10
2018-02-15T09:52:39.155Z,10.60
2018-02-15T09:55:06.752Z,9.50
2018-02-15T09:57:34.337Z,10.17
2018-02-15T10:00:02.655Z,10.33
2018-02-15T10:02:30.207Z,9.87
2018-02-15T10:04:57.800Z,9.20
2018-02-15T10:07:25.361Z,8.97
2018-02-15T10:09:52.893Z,9.40
2018-02-15T10:12:20.476Z,9.23
2018-02-15T10:14:48.806Z,9.47
2018-02-15T10:17:16.360Z,9.47
2018-02-15T10:19:43.962Z,9.87
2018-02-15T10:22:11.484Z,9.07
2018-02-15T10:24:39.800Z,8.90
2018-02-15T10:27:07.316Z,8.70
2018-02-15T10:29:34.892Z,9.40
2018-02-15T10:32:02.452Z,10.20
2018-02-15T10:34:30.088Z,10.40
2018-02-15T10:36:57.698Z,9.73
2018-02-15T10:39:25.323Z,9.73
2018-02-15T10:41:53.641Z,9.90
2018-02-15T10:44:21.184Z,11.03
2018-02-15T10:46:49.544Z,10.93
2018-02-15T10:49:17.153Z,11.53
2018-02-15T10:51:44.724Z,8.63
2018-02-15T10:54:12.331Z,8.87
2018-02-15T10:56:39.924Z,8.30
2018-02-15T10:59:07.592Z,8.90
2018-02-15T11:01:41.155Z,8.07
2018-02-15T11:04:15.329Z,9.23
2018-02-15T11:06:42.906Z,8.97
2018-02-15T11:09:11.273Z,7.17
2018-02-15T11:11:38.874Z,9.43
2018-02-15T11:14:06.400Z,10.80
2018-02-15T11:16:34.007Z,9.73
2018-02-15T11:19:01.652Z,10.67
2018-02-15T11:21:29.236Z,9.97
2018-02-15T11:23:56.829Z,11.07
2018-02-15T11:26:24.421Z,11.00
2018-02-15T11:28:51.973Z,12.17
2018-02-15T11:31:19.604Z,11.90
2018-02-15T11:33:47.125Z,12.20
2018-02-15T11:36:14.767Z,12.87
2018-02-15T11:38:42.313Z,13.60
2018-02-15T11:41:10.709Z,14.60
2018-02-15T11:43:39.031Z,17.47
2018-02-15T11:46:06.634Z,14.57
2018-02-15T11:48:34.155Z,16.53
2018-02-15T11:51:01.679Z,17.27
2018-02-15T11:53:29.318Z,17.60
2018-02-15T11:55:56.868Z,17.70
2018-02-15T11:58:25.192Z,15.17
2018-02-15T12:00:52.721Z,18.13
2018-02-15T12:03:20.306Z,19.70
2018-02-15T12:05:47.857Z,19.27
2018-02-15T12:08:15.392Z,19.77
2018-02-15T12:10:43.020Z,19.93
2018-02-15T12:13:10.588Z,21.33
2018-02-15T12:15:38.882Z,21.03
2018-02-15T12:18:06.467Z,21.73
2018-02-15T12:20:34.120Z,21.47
2018-02-15T12:23:01.693Z,25.00
2018-02-15T12:25:30.033Z,22.67
2018-02-15T12:27:57.628Z,21.67
2018-02-15T12:30:25.448Z,22.33
2018-02-15T12:32:52.992Z,23.37
2018-02-15T12:35:21.304Z,24.77
2018-02-15T12:37:48.885Z,24.40
2018-02-15T12:40:16.425Z,22.53
2018-02-15T12:42:43.957Z,24.20
2018-02-15T12:45:11.478Z,25.03
2018-02-15T12:47:39.846Z,20.57
2018-02-15T12:50:07.378Z,23.80
2018-02-15T12:52:35.129Z,23.87
2018-02-15T12:55:02.666Z,23.17
2018-02-15T12:57:30.228Z,22.53
2018-02-15T12:59:57.820Z,22.17
2018-02-15T13:02:26.148Z,20.83
2018-02-15T13:04:53.703Z,21.20
2018-02-15T13:07:21.261Z,21.10
2018-02-15T13:09:49.543Z,20.47
2018-02-15T13:12:29.584Z,20.17
2018-02-15T13:14:57.212Z,21.13
2018-02-15T13:17:24.773Z,19.80
2018-02-15T13:20:05.167Z,23.03
2018-02-15T13:22:44.608Z,20.03
2018-02-15T13:25:12.180Z,20.13
2018-02-15T13:30:39.492Z,18.37
2018-02-15T13:33:06.970Z,19.70
2018-02-15T13:35:34.437Z,21.07
2018-02-15T13:38:01.913Z,18.93
2018-02-15T13:40:29.375Z,20.57
2018-02-15T13:42:56.846Z,19.47
2018-02-15T13:45:24.326Z,20.27
2018-02-15T13:47:51.786Z,19.33
2018-02-15T13:50:19.290Z,16.23
2018-02-15T13:52:46.749Z,17.83
2018-02-15T13:55:14.214Z,17.07
2018-02-15T13:57:41.674Z,16.13
2018-02-15T14:00:09.153Z,18.73
2018-02-15T14:02:36.616Z,17.73
2018-02-15T14:05:04.085Z,18.30
2018-02-15T14:07:31.553Z,19.30
2018-02-15T14:09:59.030Z,17.70
2018-02-15T14:12:26.505Z,16.83
2018-02-15T14:14:54.002Z,16.20
2018-02-15T14:17:21.459Z,17.60
2018-02-15T14:19:48.949Z,15.87
2018-02-15T14:22:16.406Z,14.60
2018-02-15T14:24:43.895Z,15.13
2018-02-15T14:27:11.359Z,15.23
2018-02-15T14:29:38.828Z,14.77
2018-02-15T14:32:07.056Z,14.83
2018-02-15T14:34:34.543Z,14.60
2018-02-15T14:37:02.077Z,13.83
2018-02-15T14:39:29.545Z,16.30
2018-02-15T14:41:57.795Z,15.10
2018-02-15T14:44:25.276Z,13.20
2018-02-15T14:46:52.739Z,14.30
2018-02-15T14:49:20.212Z,15.53
2018-02-15T14:51:47.683Z,13.83
2018-02-15T14:54:15.138Z,14.23
2018-02-15T14:56:42.610Z,15.67
2018-02-15T14:59:10.088Z,15.90
2018-02-15T15:01:37.559Z,13.97
2018-02-15T15:04:05.020Z,15.10
2018-02-15T15:06:32.505Z,13.57
2018-02-15T15:08:59.969Z,15.20
2018-02-15T15:11:27.438Z,17.40
2018-02-15T15:13:54.895Z,15.43
2018-02-15T15:16:22.370Z,16.07
2018-02-15T15:18:49.843Z,14.57
2018-02-15T15:21:17.316Z,14.73
2018-02-15T15:23:44.779Z,15.80
2018-02-15T15:26:12.266Z,15.07
2018-02-15T15:28:39.736Z,15.43
2018-02-15T15:31:07.210Z,17.03
2018-02-15T15:33:34.687Z,14.77
2018-02-15T15:36:02.162Z,15.97
2018-02-15T15:38:29.631Z,14.37
2018-02-15T15:40:57.115Z,17.53
2018-02-15T15:43:25.356Z,15.77
2018-02-15T15:45:52.824Z,14.97
2018-02-15T15:48:20.310Z,16.53
2018-02-15T15:50:47.766Z,17.50
2018-02-15T15:53:15.255Z,17.70
2018-02-15T15:55:42.739Z,16.87
2018-02-15T15:58:10.210Z,16.87
2018-02-15T16:00:37.685Z,16.93
2018-02-15T16:03:05.166Z,15.60
2018-02-15T16:05:33.398Z,18.17
2018-02-15T16:08:00.892Z,16.07
2018-02-15T16:10:28.365Z,17.93
2018-02-15T16:12:55.853Z,17.20
2018-02-15T16:15:24.116Z,16.07
2018-02-15T16:17:51.594Z,15.37
2018-02-15T16:20:19.065Z,19.37
2018-02-15T16:22:46.544Z,18.00
2018-02-15T16:25:14.020Z,16.80
2018-02-15T16:27:41.508Z,17.70
2018-02-15T16:30:09.739Z,19.97
2018-02-15T16:32:37.225Z,16.30
2018-02-15T16:35:04.687Z,17.47
2018-02-15T16:37:32.168Z,15.57
2018-02-15T16:39:59.646Z,17.10
2018-02-15T16:42:27.124Z,16.80
2018-02-15T16:44:54.592Z,15.83
2018-02-15T16:47:22.068Z,17.30
2018-02-15T16:49:49.534Z,15.50
2018-02-15T16:52:17.011Z,19.10
2018-02-15T16:54:44.481Z,17.37
2018-02-15T16:57:11.958Z,22.07
2018-02-15T16:59:40.195Z,17.07
2018-02-15T17:02:07.672Z,16.13
2018-02-15T17:04:35.144Z,15.03
2018-02-15T17:07:02.631Z,15.57
2018-02-15T17:09:30.106Z,13.93
2018-02-15T17:11:57.582Z,13.73
2018-02-15T17:14:25.061Z,14.90
2018-02-15T17:16:53.336Z,13.90
2018-02-15T17:19:20.777Z,16.83
2018-02-15T17:21:48.237Z,14.70
2018-02-15T17:24:15.710Z,15.30
2018-02-15T17:26:43.182Z,14.43
2018-02-15T17:29:10.654Z,17.05
2018-02-15T17:31:38.139Z,15.30
2018-02-15T17:34:05.623Z,14.60
2018-02-15T17:36:34.615Z,15.03
2018-02-15T17:39:02.108Z,13.97
2018-02-15T17:41:30.375Z,13.23
2018-02-15T17:43:57.854Z,14.53
2018-02-15T17:46:25.317Z,15.97
2018-02-15T17:48:52.804Z,14.93
2018-02-15T17:51:20.282Z,14.23
2018-02-15T17:53:47.760Z,14.23
2018-02-15T17:56:15.994Z,11.73
2018-02-15T17:58:43.476Z,13.20
2018-02-15T18:01:10.936Z,14.03
2018-02-15T18:03:38.419Z,15.60
2018-02-15T18:06:05.888Z,14.70
2018-02-15T18:08:33.359Z,14.30
2018-02-15T18:11:00.822Z,14.23
2018-02-15T18:13:28.307Z,13.87
2018-02-15T18:15:55.770Z,13.30
2018-02-15T18:18:23.254Z,15.57
2018-02-15T18:20:50.730Z,12.87
2018-02-15T18:23:18.205Z,13.80
2018-02-15T18:25:46.448Z,12.23
2018-02-15T18:28:13.923Z,12.83
2018-02-15T18:30:41.391Z,12.50
2018-02-15T18:33:08.863Z,11.37
2018-02-15T18:35:36.331Z,13.00
2018-02-15T18:38:03.823Z,13.20
2018-02-15T18:40:31.292Z,12.07
2018-02-15T18:42:58.767Z,13.07
2018-02-15T18:45:26.234Z,13.57
2018-02-15T18:47:53.704Z,13.57
2018-02-15T18:50:21.180Z,14.13
2018-02-15T18:52:48.644Z,12.87
2018-02-15T18:55:16.120Z,13.13
2018-02-15T18:57:43.596Z,14.03
2018-02-15T19:00:11.063Z,14.47
2018-02-15T19:02:38.530Z,12.73
2018-02-15T19:05:05.996Z,18.07
2018-02-15T19:07:34.235Z,20.83
2018-02-15T19:10:01.721Z,17.73
2018-02-15T19:12:29.191Z,14.47
2018-02-15T19:14:56.673Z,14.13
2018-02-15T19:17:24.137Z,16.03
2018-02-15T19:19:51.619Z,14.63
2018-02-15T19:22:19.091Z,14.80
2018-02-15T19:24:46.576Z,13.83
2018-02-15T19:27:14.038Z,13.00
2018-02-15T19:29:41.514Z,13.97
2018-02-15T19:32:08.970Z,15.27
2018-02-15T19:34:36.545Z,15.73
2018-02-15T19:37:04.829Z,14.90
2018-02-15T19:39:32.304Z,14.40
2018-02-15T19:41:59.761Z,15.80
2018-02-15T19:44:27.242Z,17.90
2018-02-15T19:46:54.714Z,16.17
2018-02-15T19:49:22.187Z,15.77
2018-02-15T19:51:49.663Z,15.60
2018-02-15T19:54:17.131Z,14.30
2018-02-15T19:56:44.697Z,17.87
2018-02-15T19:59:12.220Z,12.73
2018-02-15T20:01:39.807Z,15.13
2018-02-15T20:04:07.385Z,13.47
2018-02-15T20:06:34.926Z,15.50
2018-02-15T20:09:03.340Z,14.90
2018-02-15T20:11:30.918Z,12.97
2018-02-15T20:13:58.465Z,13.23
2018-02-15T20:16:26.120Z,14.27
2018-02-15T20:18:54.451Z,12.13
2018-02-15T20:21:21.955Z,13.60
2018-02-15T20:23:49.527Z,14.10
2018-02-15T20:26:22.738Z,16.13
2018-02-15T20:28:50.305Z,12.83
2018-02-15T20:31:17.922Z,15.87
2018-02-15T20:33:45.545Z,14.87
2018-02-15T20:36:13.176Z,13.27
2018-02-15T20:38:47.028Z,14.00
2018-02-15T20:41:14.637Z,12.80
2018-02-15T20:43:42.899Z,15.53
2018-02-15T20:46:10.491Z,14.93
2018-02-15T20:48:38.018Z,15.87
2018-02-15T20:51:11.136Z,17.77
2018-02-15T20:56:48.794Z,14.57
2018-02-15T20:59:16.265Z,17.20
2018-02-15T21:01:43.732Z,13.83
2018-02-15T21:04:11.216Z,15.50
2018-02-15T21:06:38.746Z,15.30
2018-02-15T21:09:06.219Z,14.00
2018-02-15T21:11:33.714Z,15.07
2018-02-15T21:14:01.179Z,15.10
2018-02-15T21:16:28.662Z,14.43
2018-02-15T21:18:56.138Z,15.77
2018-02-15T21:21:23.602Z,14.67
2018-02-15T21:23:51.091Z,16.63
2018-02-15T21:26:18.578Z,18.63
2018-02-15T21:28:46.815Z,15.90
2018-02-15T21:31:14.306Z,16.37
2018-02-15T21:33:41.774Z,17.10
2018-02-15T21:36:09.255Z,17.40
2018-02-15T21:38:36.727Z,17.57
2018-02-15T21:41:04.217Z,17.77
2018-02-15T21:43:32.474Z,18.53
2018-02-15T21:45:59.952Z,18.20
2018-02-15T21:48:27.430Z,19.10
2018-02-15T21:50:54.903Z,18.93
2018-02-15T21:53:22.378Z,21.40
2018-02-15T21:55:50.610Z,19.87
2018-02-15T21:58:18.095Z,24.25
2018-02-15T22:00:45.562Z,22.50
2018-02-15T22:03:14.055Z,22.87
2018-02-15T22:05:41.537Z,22.20
2018-02-15T22:08:09.022Z,24.17
2018-02-15T22:10:36.493Z,21.83
2018-02-15T22:13:04.032Z,19.53
2018-02-15T22:15:31.515Z,23.00
2018-02-15T22:17:58.991Z,21.30
2018-02-15T22:20:26.495Z,19.23
2018-02-15T22:22:54.732Z,20.50
2018-02-15T22:25:22.195Z,24.40
2018-02-15T22:27:49.670Z,19.00
2018-02-15T22:30:17.149Z,20.77
2018-02-15T22:32:44.622Z,21.67
2018-02-15T22:35:12.087Z,18.80
2018-02-15T22:37:39.587Z,21.20
2018-02-15T22:40:08.657Z,23.37
2018-02-15T22:42:36.264Z,20.83
2018-02-15T22:45:04.575Z,20.63
2018-02-15T22:47:32.258Z,21.50
2018-02-15T22:49:59.800Z,21.93
2018-02-15T22:52:27.377Z,21.33
2018-02-15T22:54:55.007Z,17.53
2018-02-15T22:57:22.575Z,15.57
2018-02-15T22:59:50.160Z,17.80
2018-02-15T23:02:17.767Z,22.50
2018-02-15T23:04:45.318Z,16.47
2018-02-15T23:07:12.836Z,17.40
2018-02-15T23:09:40.391Z,15.83
2018-02-15T23:12:08.710Z,19.63
2018-02-15T23:14:36.266Z,18.87
2018-02-15T23:17:04.594Z,14.60
2018-02-15T23:19:32.176Z,18.50
2018-02-15T23:21:59.805Z,23.33
2018-02-15T23:24:27.385Z,16.40
2018-02-15T23:26:54.952Z,19.33
2018-02-15T23:29:22.591Z,17.97
2018-02-15T23:31:50.152Z,16.97
2018-02-15T23:34:17.721Z,19.80
2018-02-15T23:36:45.314Z,20.60
2018-02-15T23:39:14.415Z,16.07
2018-02-15T23:41:42.008Z,15.87
2018-02-15T23:44:10.444Z,16.83
2018-02-15T23:46:37.992Z,25.53
2018-02-15T23:49:05.918Z,14.70
2018-02-15T23:51:33.444Z,20.60
2018-02-15T23:54:01.044Z,18.70
2018-02-15T23:56:28.610Z,21.47
2018-02-15T23:58:56.211Z,18.83
